Kinjyu Maru — JD3091 — position and weather

sailwx.info

Track history (hours):
 
Tides and Currents Weather Stations Pressure Air Temp Water Temp Dewpoint Dewpoint Depression Visibility Wind Speed Wind Dir Waves Ship Positions

Kinjyu Maru

Last reported at 2018-Jun-22 14:21 UTC. Time now 2018-Jun-23 04:44 UTC.
Position N 33°48' E 135°08'.

Length 59 m; draft 4 m.

Type: Cargo ship. MMSI: 431001588.

Date/timePositionNaut miles runAvg speedWind from/ knotsBaromVisibWave heightAir tempDewpointWater temp
2018-Jun-22 14:21N 33°48' E 135°08'410.2
2018-Jun-22 13:55N 33°51' E 135°04'4 9.9
2018-Jun-22 13:30N 33°54' E 135°00'5 9.8
2018-Jun-22 13:00N 33°58' E 134°56'8 9.6
2018-Jun-22 12:11N 34°04' E 134°50'2 9.6
2018-Jun-22 12:00N 34°05' E 134°49'910.0
2018-Jun-22 11:06N 34°12' E 134°41'110.4
2018-Jun-22 11:00N 34°12' E 134°40'1010.2
2018-Jun-22 10:04N 34°18' E 134°31'1 9.9
2018-Jun-22 09:58N 34°18' E 134°30'510.1
2018-Jun-22 09:31N 34°20' E 134°24'610.0
2018-Jun-22 08:57N 34°22' E 134°18'  
2018-Jun-16 22:26N 34°35' E 134°14'19 9.9
2018-Jun-16 20:32N 34°43' E 134°35'0 9.8
2018-Jun-16 20:29N 34°44' E 134°35'10 0.7
2018-Jun-16 07:04N 34°41' E 134°47'110.2
2018-Jun-16 06:59N 34°40' E 134°48'7 8.4
2018-Jun-16 06:13N 34°37' E 134°55'210.1
2018-Jun-16 06:00N 34°38' E 134°57'4 7.6
2018-Jun-16 05:26N 34°37' E 135°02'4 8.5
2018-Jun-16 05:00N 34°36' E 135°07'511.0
2018-Jun-16 04:30N 34°36' E 135°13'611.5
2018-Jun-16 04:00N 34°36' E 135°20'6 0.9
2018-Jun-15 21:50N 34°35' E 135°27'1 1.4
2018-Jun-15 21:25N 34°35' E 135°27'0 0.1
2018-Jun-15 20:55N 34°35' E 135°27'0 0.0
2018-Jun-15 20:25N 34°35' E 135°27'0 0.0
2018-Jun-15 19:25N 34°35' E 135°27'0 0.0
2018-Jun-15 18:55N 34°35' E 135°27'0 0.0
2018-Jun-15 18:25N 34°35' E 135°27'0 0.0
2018-Jun-15 17:49N 34°35' E 135°27'0 0.0
2018-Jun-15 17:25N 34°35' E 135°27'0 0.1
2018-Jun-15 16:37N 34°35' E 135°27'0 0.2
2018-Jun-15 16:30N 34°35' E 135°27'4 7.6
2018-Jun-15 16:00N 34°36' E 135°22'5 9.2
2018-Jun-15 15:30N 34°36' E 135°17'4 9.1
2018-Jun-15 15:01N 34°35' E 135°11'510.4
2018-Jun-15 14:30N 34°35' E 135°05'4 7.6
2018-Jun-15 14:00N 34°37' E 135°01'5 7.9
2018-Jun-15 13:20N 34°37' E 134°55'8 0.3
2018-Jun-14 11:04N 34°41' E 134°47'113.2
2018-Jun-14 11:00N 34°40' E 134°47'713.1
2018-Jun-14 10:30N 34°37' E 134°55'714.0
2018-Jun-14 10:00N 34°37' E 135°03'510.9
2018-Jun-14 09:30N 34°37' E 135°10'510.6
2018-Jun-14 09:00N 34°38' E 135°16'510.0
2018-Jun-14 08:30N 34°40' E 135°22'4 6.9
2018-Jun-14 07:59N 34°40' E 135°26'0 0.0
2018-Jun-14 06:09N 34°40' E 135°26'0 0.0
2018-Jun-14 04:41N 34°40' E 135°26'0 0.0
2018-Jun-14 01:41N 34°40' E 135°26'0 0.4
2018-Jun-14 01:30N 34°41' E 135°26'3 5.9
2018-Jun-14 00:59N 34°40' E 135°22'5 9.4
2018-Jun-14 00:30N 34°38' E 135°17'5 9.4
2018-Jun-14 00:00N 34°37' E 135°12'5 9.9
2018-Jun-13 23:30N 34°35' E 135°06'4 7.3
2018-Jun-13 22:59N 34°37' E 135°02'7 7.6
2018-Jun-13 22:01N 34°35' E 134°53'0 8.3
2018-Jun-13 22:00N 34°35' E 134°53'6 8.4
2018-Jun-13 21:19N 34°32' E 134°47'3 9.1
2018-Jun-13 20:57N 34°31' E 134°43'7 9.4
2018-Jun-13 20:12N 34°28' E 134°35'2 9.3
2018-Jun-13 20:00N 34°28' E 134°33'  
Track history (hours):
 
Tides and Currents Weather Stations Pressure Air Temp Water Temp Dewpoint Dewpoint Depression Visibility Wind Speed Wind Dir Waves Ship Positions

Kinjyu Maru

Last reported at 2018-Jun-22 14:21 UTC. Time now 2018-Jun-23 04:44 UTC.
Position N 33°48' E 135°08'.

Length 59 m; draft 4 m.

Type: Cargo ship. MMSI: 431001588.

Date/timePositionNaut miles runAvg speedWind from/ knotsBaromVisibWave heightAir tempDewpointWater temp
2018-Jun-22 14:21N 33°48' E 135°08'410.2
2018-Jun-22 13:55N 33°51' E 135°04'4 9.9
2018-Jun-22 13:30N 33°54' E 135°00'5 9.8
2018-Jun-22 13:00N 33°58' E 134°56'8 9.6
2018-Jun-22 12:11N 34°04' E 134°50'2 9.6
2018-Jun-22 12:00N 34°05' E 134°49'910.0
2018-Jun-22 11:06N 34°12' E 134°41'110.4
2018-Jun-22 11:00N 34°12' E 134°40'1010.2
2018-Jun-22 10:04N 34°18' E 134°31'1 9.9
2018-Jun-22 09:58N 34°18' E 134°30'510.1
2018-Jun-22 09:31N 34°20' E 134°24'610.0
2018-Jun-22 08:57N 34°22' E 134°18'  
2018-Jun-16 22:26N 34°35' E 134°14'19 9.9
2018-Jun-16 20:32N 34°43' E 134°35'0 9.8
2018-Jun-16 20:29N 34°44' E 134°35'10 0.7
2018-Jun-16 07:04N 34°41' E 134°47'110.2
2018-Jun-16 06:59N 34°40' E 134°48'7 8.4
2018-Jun-16 06:13N 34°37' E 134°55'210.1
2018-Jun-16 06:00N 34°38' E 134°57'4 7.6
2018-Jun-16 05:26N 34°37' E 135°02'4 8.5
2018-Jun-16 05:00N 34°36' E 135°07'511.0
2018-Jun-16 04:30N 34°36' E 135°13'611.5
2018-Jun-16 04:00N 34°36' E 135°20'6 0.9
2018-Jun-15 21:50N 34°35' E 135°27'1 1.4
2018-Jun-15 21:25N 34°35' E 135°27'0 0.1
2018-Jun-15 20:55N 34°35' E 135°27'0 0.0
2018-Jun-15 20:25N 34°35' E 135°27'0 0.0
2018-Jun-15 19:25N 34°35' E 135°27'0 0.0
2018-Jun-15 18:55N 34°35' E 135°27'0 0.0
2018-Jun-15 18:25N 34°35' E 135°27'0 0.0
2018-Jun-15 17:49N 34°35' E 135°27'0 0.0
2018-Jun-15 17:25N 34°35' E 135°27'0 0.1
2018-Jun-15 16:37N 34°35' E 135°27'0 0.2
2018-Jun-15 16:30N 34°35' E 135°27'4 7.6
2018-Jun-15 16:00N 34°36' E 135°22'5 9.2
2018-Jun-15 15:30N 34°36' E 135°17'4 9.1
2018-Jun-15 15:01N 34°35' E 135°11'510.4
2018-Jun-15 14:30N 34°35' E 135°05'4 7.6
2018-Jun-15 14:00N 34°37' E 135°01'5 7.9
2018-Jun-15 13:20N 34°37' E 134°55'8 0.3
2018-Jun-14 11:04N 34°41' E 134°47'113.2
2018-Jun-14 11:00N 34°40' E 134°47'713.1
2018-Jun-14 10:30N 34°37' E 134°55'714.0
2018-Jun-14 10:00N 34°37' E 135°03'510.9
2018-Jun-14 09:30N 34°37' E 135°10'510.6
2018-Jun-14 09:00N 34°38' E 135°16'510.0
2018-Jun-14 08:30N 34°40' E 135°22'4 6.9
2018-Jun-14 07:59N 34°40' E 135°26'0 0.0
2018-Jun-14 06:09N 34°40' E 135°26'0 0.0
2018-Jun-14 04:41N 34°40' E 135°26'0 0.0
2018-Jun-14 01:41N 34°40' E 135°26'0 0.4
2018-Jun-14 01:30N 34°41' E 135°26'3 5.9
2018-Jun-14 00:59N 34°40' E 135°22'5 9.4
2018-Jun-14 00:30N 34°38' E 135°17'5 9.4
2018-Jun-14 00:00N 34°37' E 135°12'5 9.9
2018-Jun-13 23:30N 34°35' E 135°06'4 7.3
2018-Jun-13 22:59N 34°37' E 135°02'7 7.6
2018-Jun-13 22:01N 34°35' E 134°53'0 8.3
2018-Jun-13 22:00N 34°35' E 134°53'6 8.4
2018-Jun-13 21:19N 34°32' E 134°47'3 9.1
2018-Jun-13 20:57N 34°31' E 134°43'7 9.4
2018-Jun-13 20:12N 34°28' E 134°35'2 9.3
2018-Jun-13 20:00N 34°28' E 134°33'  

Dump ship's entire track history